Details for AirAsia Indonesia at WIMM




Go Back


Latest METAR
Local Time

WIMM 181300Z 11004KT 040V140 9999 BKN017 27/24 Q1009 NOSIG
18/09/2018, 20:17:31

Description
Results
AirAsia Indonesia Logo
Number of Pilots based at WIMM
0 Pilots Based here
Number of AirAsia Indonesia Flights Departed from WIMM
0 Flights Departed
Number of AirAsia Indonesia Flights Arrived at WIMM
0 Flights Arrived
Number of AirAsia Indonesia Schedules Departing from WIMM
13 Schedules
Number of AirAsia Indonesia Schedules Arriving at WIMM
13 Schedules
Number of AirAsia Indonesia Schedules Departing from WIMM availible today
13 Schedules Today
Number of AirAsia Indonesia Schedules Arriving at WIMM availible today
13 Schedules Today
Average Landing Rate at WIMM
0 fpm
AirAsia Indonesia Average Landing Rate at WIMM
0 fpm
Total Fuel Purchased at WIMM by AirAsia Indonesia
0.00 kgs / 0.00 lbs

Pilots Based at WIMM


Pilot ID
Pilot Name
Pilot Rank
No. of Flights
No. of Flying Hours
There are no pilots assigned to this hub!   Will you be the first?
Content